Tiempo atmosférico en la estación meteorológica de Mérida, Badajoz (220 m.)



Fecha
DESCASC
Temp. máxima en grados centígrados (hora)
DESCASC
Temp. mínima en grados centígrados (hora)
DESCASC
Temp. media en grados centígrados
DESCASC
Racha de viento máxima en m/sg (hora)
DESCASC
Velocidad máxima media en intervalos de 10 minutos(hora)
DESCASC
Precipitaciones diarias en mm
DESCASC
Precipitaciones de 00:00 a 06:00 en mm
DESCASC
Precipitaciones de 06:00 a 12:00 en mm
DESCASC
Precipitaciones de 12:00 a 18:00 en mm
DESCASC
Precipitaciones de 18:00 a 24:00 en mm
DESCASC
25-04-2019 18.1 (13:50) 9.1 (23:50) 13.6 15.83 (16:30) 7.5 (16:30) 1 0 0.5 0.5 0
24-04-2019 18.9 (17:00) 6.8 (00:50) 12.8 16.94 (17:00) 8.89 (22:20) 2.8 0 0 2.1 0.7
23-04-2019 16 (17:20) 8 (22:50) 12 14.72 (14:30) 8.06 (17:40) 5.8 4.6 0 1.1 0.1
22-04-2019 24.6 (16:20) 9.5 (00:00) 17.1 11.67 (18:20) 6.11 (17:40) 0 0 0 0 0
21-04-2019 22.6 (15:50) 5.6 (00:00) 14.1 7.5 (16:50) 3.89 (02:20) 0 0 0 0 0
20-04-2019 22.2 (16:10) 9.3 (00:00) 15.8 12.78 (20:50) 6.67 (20:20) 0.4 0.1 0.3 0 0
19-04-2019 21.9 (17:00) 10.2 (00:00) 16 9.44 (17:30) 4.72 (17:30) 1.3 0.2 0.1 0 1
18-04-2019 21.6 (17:50) 9.4 (00:00) 15.5 8.06 (20:30) 4.17 (13:40) 6.5 0 0 0 6.5
17-04-2019 23.3 (15:50) 8.5 (00:00) 15.9 12.5 (17:20) 7.22 (17:20) 0.4 0 0 0 0.4
16-04-2019 26.2 (17:20) 5.1 (00:00) 15.7 8.89 (15:10) 4.72 (16:10) 0 0 0 0 0
15-04-2019 23.4 (15:00) 11.3 (00:00) 17.3 15.83 (17:50) 5 (17:50) 0 0 0 0 0
14-04-2019 26.1 (16:40) 9.4 (00:00) 17.8 7.22 (18:00) 2.22 (02:00) 0 0 0 0 0
13-04-2019 25.1 (17:00) 6.7 (00:00) 15.9 9.72 (18:50) 5 (18:50) 0 0 0 0 0
12-04-2019 23.5 (17:10) 2.7 (00:00) 13.1 5.56 (19:30) 2.22 (01:40) 0 0 0 0 0
11-04-2019 22.2 (16:10) 4.1 (00:00) 13.2 6.39 (16:20) 3.06 (16:40) 0 0 0 0 0
10-04-2019 19.7 (17:20) 6.2 (00:00) 13 10 (14:40) 5.83 (18:50) 0 0 0 0 0
09-04-2019 18.3 (15:40) 7.1 (00:00) 12.7 14.72 (14:30) 7.5 (14:40) 1 0 0.4 0.6 0
08-04-2019 19.7 (16:40) 9.2 (00:00) 14.5 13.06 (19:30) 6.11 (15:10) 1.9 1.1 0.6 0 0.2
07-04-2019 14.3 (16:30) 8.1 (00:00) 11.2 8.06 (03:40) 4.72 (05:50) 4 1.6 0.1 0.3 2
06-04-2019 16 (14:40) 5.9 (00:00) 11 18.89 (14:50) 7.5 (13:50) 1.4 0 0.2 0.4 0.8
05-04-2019 14.9 (16:30) 5.2 (00:00) 10 13.61 (10:10) 6.67 (15:10) 7.7 5.8 1.2 0.4 0.3
04-04-2019 18.5 (15:50) 3.1 (00:00) 10.8 9.72 (18:10) 5.28 (18:30) 0 0 0 0 0
03-04-2019 20.3 (17:10) 6.4 (00:00) 13.3 9.17 (17:00) 4.17 (14:00) 0 0 0 0 0
02-04-2019 22.6 (16:30) 5.1 (00:00) 13.9 6.94 (18:00) 3.89 (19:20) 0.1 0 0.1 0 0
01-04-2019 20.3 (15:00) 8.9 (00:00) 14.6 8.33 (17:10) 4.72 (17:10) 2.4 1 1 0 0.4
31-03-2019 23 (16:40) 7.4 (00:00) 15.2 9.72 (18:00) 6.11 (18:00) 0.6 0.6 0 0 0
30-03-2019 23.5 (15:50) 7.6 (00:00) 15.5 10.83 (21:00) 5.56 (21:50) 0.4 0 0 0 0.4
29-03-2019 23.4 (14:50) 3.1 (00:00) 13.2 6.94 (15:00) 3.33 (10:10) 0 0 0 0 0
28-03-2019 22.9 (15:50) 2.4 (00:00) 12.6 10.83 (15:10) 4.72 (13:00) 0 0 0 0 0
27-03-2019 22.9 (17:00) 7.7 (00:00) 15.3 14.72 (14:40) 5 (01:00) 0 0 0 0 0

Gráficas

Temp. máximas Temp. mínimas Temp. medias Precipitaciones Rachas de viento máximas Velocidades máximas media en intervalos de 10 minutos

Datos horarios

Fecha y hora oficial Temperatura (ºC) Velocidad del viento (km/h) Dirección del viento Racha (km/h) Dirección de racha Precipitación (mm) Presión (hPa) Tendencia (hPa) Humedad (%)
2019-04-25 23:00:00 10.4 10 Oeste 19 Oeste 0 -- -- 69
2019-04-25 22:00:00 11.9 10 Oeste 30 Oeste 0 -- -- 65
2019-04-25 21:00:00 13.4 8 Oeste 24 Noroeste 0 -- -- 62
2019-04-25 20:00:00 15.4 14 Oeste 26 Oeste 0 -- -- 62
2019-04-25 19:00:00 14.3 13 Sudoeste 37 Oeste 0 -- -- 63
2019-04-25 18:00:00 14.5 15 Oeste 38 Oeste 0.1 -- -- 66
2019-04-25 17:00:00 15 18 Oeste 57 Oeste 0.4 -- -- 72
2019-04-25 16:00:00 15.5 14 Sudoeste 45 Oeste 0 -- -- 54
2019-04-25 15:00:00 15.1 18 Oeste 46 Sudoeste 0 -- -- 51
2019-04-25 14:00:00 15.6 22 Oeste 48 Sudoeste 0 -- -- 51
2019-04-25 13:00:00 15.9 21 Sudoeste 39 Oeste 0 -- -- 54
2019-04-25 12:00:00 15.2 19 Sudoeste 41 Sudoeste 0 -- -- 61
2019-04-25 11:00:00 13.9 14 Sudoeste 31 Oeste 0.1 -- -- 71
2019-04-25 10:00:00 9.9 12 Sudoeste 48 Oeste 0.4 -- -- 89
2019-04-25 09:00:00 11.9 14 Sudoeste 27 Oeste 0 -- -- 83
2019-04-25 08:00:00 10.7 16 Oeste 30 Oeste 0 -- -- 87
2019-04-25 07:00:00 11.1 11 Sudoeste 22 Sudoeste 0 -- -- 88
2019-04-25 06:00:00 11.1 12 Sudoeste 42 Oeste 0 -- -- 87
2019-04-25 05:00:00 11.6 16 Sudoeste 33 Sudoeste 0 -- -- 87
2019-04-25 04:00:00 11.7 14 Sudoeste 30 Sudoeste 0 -- -- 91
2019-04-25 03:00:00 11.4 13 Sudoeste 30 Sudoeste 0 -- -- 92
2019-04-25 02:00:00 11.4 14 Sudoeste 30 Sudoeste 0 -- -- 95
2019-04-25 01:00:00 11.9 11 Sudoeste 31 Oeste 0 -- -- 98
2019-04-25 00:00:00 11.8 21 Oeste 45 Sudoeste 0.7 -- -- 99
2019-04-24 23:00:00 13.7 17 Sudoeste 58 Sudoeste 0 -- -- 90
2019-04-24 22:00:00 14.7 23 Sudoeste 39 Sudoeste 0 -- -- 76
2019-04-24 21:00:00 14.2 18 Sudoeste 44 Sudoeste 0 -- -- 74
2019-04-24 20:00:00 15.6 12 Sudoeste 40 Oeste 0 -- -- 74
2019-04-24 19:00:00 16 18 Sudoeste 52 Oeste 0 -- -- 72
2019-04-24 18:00:00 17.7 24 Sudoeste 60 Sudoeste 0 -- -- 65
2019-04-24 17:00:00 17.5 25 Sudoeste 61 Sudoeste 0.1 -- -- 69
2019-04-24 16:00:00 15.4 19 Sudoeste 55 Sur 1.9 -- -- 93
2019-04-24 15:00:00 18 30 Sudoeste 59 Sudoeste 0 -- -- 64
2019-04-24 14:00:00 15.9 27 Sudoeste 59 Sur 0 -- -- 77
2019-04-24 13:00:00 17.2 28 Sudoeste 59 Sur 0.1 -- -- 66
2019-04-24 12:00:00 15 23 Sudoeste 51 Sur 0 -- -- 73
2019-04-24 11:00:00 13.8 19 Sur 49 Sur 0 -- -- 75
2019-04-24 10:00:00 13.1 26 Sur 58 Sur 0 -- -- 74
2019-04-24 09:00:00 12.2 24 Sur 46 Sur 0 -- -- 75
2019-04-24 08:00:00 11.3 21 Sur 40 Sudoeste 0 -- -- 75
2019-04-24 07:00:00 10.6 21 Sur 40 Sur 0 -- -- 77
2019-04-24 06:00:00 10 16 Sur 28 Sur 0 -- -- 81
2019-04-24 05:00:00 9.6 13 Sur 25 Sudeste 0 -- -- 81
2019-04-24 04:00:00 9.3 10 Sur 28 Sur 0 -- -- 80
2019-04-24 03:00:00 9.4 9 Sur 22 Sudoeste 0 -- -- 79
2019-04-24 02:00:00 8 7 Sudoeste 18 Sudoeste 0 -- -- 88
2019-04-24 01:00:00 7.4 3 Sudeste 9 Oeste 0 -- -- 91
2019-04-24 00:00:00 8.5 8 Oeste 21 Sudoeste 0 -- -- 84
2019-04-23 23:00:00 8.2 9 Sudoeste 27 Sudoeste 0 -- -- 81
2019-04-23 22:00:00 8.7 11 Sudoeste 25 Sudoeste 0 -- -- 75
2019-04-23 21:00:00 9.7 14 Sudoeste 41 Sudoeste 0 -- -- 68
2019-04-23 20:00:00 11.3 18 Oeste 41 Oeste 0 -- -- 62
2019-04-23 19:00:00 11.5 18 Oeste 36 Oeste 0.1 -- -- 65
2019-04-23 18:00:00 8.6 22 Oeste 53 Oeste 0.2 -- -- 84
2019-04-23 17:00:00 14.9 11 Sudoeste 44 Oeste 0 -- -- 60
2019-04-23 16:00:00 13.8 14 Oeste 48 Oeste 0.7 -- -- 67
2019-04-23 15:00:00 14.9 18 Oeste 53 Oeste 0 -- -- 54
2019-04-23 14:00:00 13.1 26 Oeste 48 Oeste 0 -- -- 59
2019-04-23 13:00:00 14 19 Oeste 40 Oeste 0.2 -- -- 62
2019-04-23 12:00:00 11.3 19 Sudoeste 39 Sudoeste 0 -- -- 68
2019-04-23 11:00:00 12.2 17 Sudoeste 38 Sudoeste 0 -- -- 65
2019-04-23 10:00:00 10.8 15 Sudoeste 28 Sudoeste 0 -- -- 74
2019-04-23 09:00:00 8.5 9 Sudoeste 19 Sudoeste 0 -- -- 96
2019-04-23 08:00:00 8.3 7 Sudoeste 24 Oeste 0 -- -- 97
2019-04-23 07:00:00 8.9 12 Oeste 23 Oeste 0 -- -- 97
2019-04-23 06:00:00 9.4 13 Oeste 25 Oeste 0 -- -- 99
2019-04-23 05:00:00 9.7 9 Oeste 27 Oeste 0.7 -- -- 99
2019-04-23 04:00:00 9.8 12 Sudoeste 22 Sudoeste 1.3 -- -- 99
2019-04-23 03:00:00 10.2 14 Oeste 33 Sudoeste 2.6 -- -- 97
2019-04-23 02:00:00 13.8 12 Sudoeste 35 Sudoeste 0 -- -- 75
2019-04-23 01:00:00 14.3 11 Sudoeste 28 Oeste 0 -- -- 77
2019-04-23 00:00:00 14.6 17 Oeste 31 Sudoeste 0 -- -- 76
2019-04-22 23:00:00 16 15 Sudoeste 37 Sudoeste 0 -- -- 63
2019-04-22 22:00:00 17.4 16 Sudoeste 31 Oeste 0 -- -- 50
2019-04-22 21:00:00 18.5 13 Sudoeste 23 Sudoeste 0 -- -- 48
2019-04-22 20:00:00 19.5 14 Sudoeste 33 Oeste 0 -- -- 39
2019-04-22 19:00:00 20.8 17 Oeste 42 Oeste 0 -- -- 38
2019-04-22 18:00:00 22.6 19 Oeste 41 Oeste 0 -- -- 35
2019-04-22 17:00:00 22.1 19 Oeste 40 Sudoeste 0 -- -- 36
2019-04-22 16:00:00 23.6 16 Oeste 31 Sudoeste 0 -- -- 38
2019-04-22 15:00:00 23.4 14 Sudoeste 27 Sudoeste 0 -- -- 40
2019-04-22 14:00:00 21.8 12 Oeste 26 Oeste 0 -- -- 42
2019-04-22 13:00:00 21.7 5 Sudoeste 15 Oeste 0 -- -- 43
2019-04-22 12:00:00 19.6 6 Sur 17 Sur 0 -- -- 50
2019-04-22 11:00:00 17.7 7 Sudeste 17 Este 0 -- -- 57
2019-04-22 10:00:00 13.6 10 Este 18 Este 0 -- -- 74
2019-04-22 09:00:00 12.4 8 Este 12 Este 0 -- -- 83
2019-04-22 08:00:00 10 7 Este 12 Este 0 -- -- 93
2019-04-22 07:00:00 10.2 8 Este 10 Este 0 -- -- 93
2019-04-22 06:00:00 10.3 7 Este 9 Este 0 -- -- 93
2019-04-22 05:00:00 9.7 0 Calma 8 Este 0 -- -- 90
2019-04-22 04:00:00 12.2 3 Sur 5 Sur 0 -- -- 87
2019-04-22 03:00:00 12.3 0 Calma 5 Oeste 0 -- -- 87
2019-04-22 02:00:00 13 0 Calma 7 Este 0 -- -- 84
2019-04-22 01:00:00 12.7 0 Calma 3 Este 0 -- -- 83
2019-04-22 00:00:00 12.8 0 Calma 5 Este 0 -- -- 80
2019-04-21 23:00:00 14.9 4 Sudeste 5 Este 0 -- -- 62
2019-04-21 22:00:00 15.8 4 Este 8 Este 0 -- -- 54
2019-04-21 21:00:00 16.8 6 Este 13 Este 0 -- -- 47
2019-04-21 20:00:00 17.6 10 Este 24 Nordeste 0 -- -- 44
2019-04-21 19:00:00 19.4 10 Este 20 Nordeste 0 -- -- 40
2019-04-21 18:00:00 20.1 11 Nordeste 27 Nordeste 0 -- -- 38
2019-04-21 17:00:00 20.9 12 Nordeste 27 Norte 0 -- -- 38
2019-04-21 16:00:00 21.1 10 Nordeste 22 Nordeste 0 -- -- 39
2019-04-21 15:00:00 21.1 9 Nordeste 26 Norte 0 -- -- 41
2019-04-21 14:00:00 19.1 10 Norte 24 Nordeste 0 -- -- 43
2019-04-21 13:00:00 19.7 9 Norte 21 Norte 0 -- -- 41
2019-04-21 12:00:00 19.5 4 Nordeste 18 Norte 0 -- -- 44
2019-04-21 11:00:00 17.2 5 Nordeste 13 Sudeste 0 -- -- 49
2019-04-21 10:00:00 12.9 2 Este 7 Sudeste 0 -- -- 67
2019-04-21 09:00:00 10.6 2 Sur 7 Sudoeste 0 -- -- 83
2019-04-21 08:00:00 6.3 3 Oeste 5 Oeste 0 -- -- 97
2019-04-21 07:00:00 7.3 4 Este 5 Este 0 -- -- 90
2019-04-21 06:00:00 10.1 4 Nordeste 20 Nordeste 0 -- -- 71
2019-04-21 05:00:00 11.7 9 Nordeste 18 Nordeste 0 -- -- 69
2019-04-21 04:00:00 12 8 Nordeste 16 Nordeste 0 -- -- 69
2019-04-21 03:00:00 12.9 11 Nordeste 25 Nordeste 0 -- -- 70
2019-04-21 02:00:00 13.3 12 Nordeste 26 Este 0 -- -- 70
2019-04-21 01:00:00 13.5 8 Este 18 Nordeste 0 -- -- 70
2019-04-21 00:00:00 13.8 7 Este 20 Este 0 -- -- 62
2019-04-20 23:00:00 14.8 9 Este 28 Este 0 -- -- 57
2019-04-20 22:00:00 15.2 14 Este 33 Este 0 -- -- 54
2019-04-20 21:00:00 15.9 18 Este 46 Este 0 -- -- 55
2019-04-20 20:00:00 17.1 22 Este 34 Este 0 -- -- 54
2019-04-20 19:00:00 17.8 17 Este 31 Nordeste 0 -- -- 53
2019-04-20 18:00:00 20.3 19 Este 31 Este 0 -- -- 46
2019-04-20 17:00:00 21.1 18 Este 34 Este 0 -- -- 45
2019-04-20 16:00:00 21.5 16 Este 30 Este 0 -- -- 46
2019-04-20 15:00:00 19 14 Nordeste 39 Nordeste 0 -- -- 47
2019-04-20 14:00:00 18.6 22 Nordeste 44 Nordeste 0 -- -- 45
2019-04-20 13:00:00 19.7 12 Nordeste 24 Nordeste 0 -- -- 49
2019-04-20 12:00:00 17.8 8 Norte 18 Norte 0 -- -- 62
2019-04-20 11:00:00 16 6 Norte 13 Norte 0 -- -- 76
2019-04-20 10:00:00 12.5 3 Norte 10 Norte 0.1 -- -- 94
2019-04-20 09:00:00 11.2 0 Calma 9 Norte 0.2 -- -- 95
2019-04-20 08:00:00 11.1 3 Norte 7 Norte 0 -- -- 93
2019-04-20 07:00:00 10.4 0 Calma 6 Sudeste 0 -- -- 93
2019-04-20 06:00:00 9.8 3 Sudeste 6 Este 0 -- -- 93
2019-04-20 05:00:00 10.5 2 Nordeste 14 Nordeste 0 -- -- 85
2019-04-20 04:00:00 11 5 Nordeste 14 Nordeste 0 -- -- 83
2019-04-20 03:00:00 11.2 7 Nordeste 21 Nordeste 0 -- -- 84
2019-04-20 02:00:00 11.6 8 Nordeste 17 Nordeste 0.1 -- -- 87
2019-04-20 01:00:00 12.2 10 Nordeste 20 Nordeste 0 -- -- 91
2019-04-20 00:00:00 12.2 9 Nordeste 18 Nordeste 0.2 -- -- 93
2019-04-19 23:00:00 12.6 9 Nordeste 22 Este 0.6 -- -- 89
2019-04-19 22:00:00 13.5 8 Nordeste 21 Este 0.1 -- -- 75
2019-04-19 21:00:00 14.7 11 Este 33 Nordeste 0 -- -- 68
2019-04-19 20:00:00 15.3 13 Nordeste 29 Nordeste 0.1 -- -- 70
2019-04-19 19:00:00 17.5 7 Noroeste 18 Noroeste 0 -- -- 62
2019-04-19 18:00:00 15.2 10 Norte 34 Noroeste 0 -- -- 65
2019-04-19 17:00:00 20.9 2 Este 18 Norte 0 -- -- 43
2019-04-19 16:00:00 18.5 6 Nordeste 20 Norte 0 -- -- 48
2019-04-19 15:00:00 20 4 Este 14 Nordeste 0 -- -- 47
2019-04-19 14:00:00 18.2 6 Sudeste 15 Nordeste 0 -- -- 56
2019-04-19 13:00:00 16.8 8 Nordeste 17 Este 0 -- -- 64
2019-04-19 12:00:00 14.1 8 Este 13 Este 0 -- -- 75
2019-04-19 11:00:00 12.9 6 Este 10 Este 0 -- -- 84
2019-04-19 10:00:00 11.8 4 Oeste 7 Oeste 0 -- -- 93
2019-04-19 09:00:00 11.1 3 Oeste 10 Oeste 0 -- -- 99
2019-04-19 08:00:00 10.8 4 Oeste 6 Oeste 0.1 -- -- 99
2019-04-19 07:00:00 10.3 3 Oeste 7 Oeste 0 -- -- 99
2019-04-19 06:00:00 10.7 5 Oeste 10 Oeste 0 -- -- 99
2019-04-19 05:00:00 10.8 6 Oeste 11 Oeste 0 -- -- 99
2019-04-19 04:00:00 11 7 Oeste 11 Oeste 0 -- -- 99
2019-04-19 03:00:00 10.8 3 Oeste 6 Oeste 0 -- -- 99
2019-04-19 02:00:00 10.6 0 Calma 7 Oeste 0.1 -- -- 99
2019-04-19 01:00:00 10.8 4 Noroeste 16 Oeste 0.1 -- -- 99
2019-04-19 00:00:00 10.8 8 Sur 12 Sudeste 3.2 -- -- 99
2019-04-18 23:00:00 10.7 4 Sudoeste 12 Sudeste 1.8 -- -- 98
2019-04-18 22:00:00 11 0 Calma 22 Noroeste 1.5 -- -- 94
2019-04-18 21:00:00 13.7 4 Sudoeste 29 Oeste 0 -- -- 78
2019-04-18 20:00:00 16.3 11 Oeste 23 Oeste 0 -- -- 52
2019-04-18 19:00:00 18.2 9 Sudoeste 18 Oeste 0 -- -- 46
2019-04-18 18:00:00 20.7 5 Oeste 16 Sudoeste 0 -- -- 43
2019-04-18 17:00:00 19 5 Sur 17 Oeste 0 -- -- 49
2019-04-18 16:00:00 17.2 7 Sudoeste 20 Oeste 0 -- -- 50
2019-04-18 15:00:00 17.6 7 Oeste 22 Oeste 0 -- -- 52
2019-04-18 14:00:00 17.1 13 Oeste 27 Sudoeste 0 -- -- 54
2019-04-18 13:00:00 17.5 6 Oeste 19 Oeste 0 -- -- 60
2019-04-18 12:00:00 17.4 9 Oeste 19 Oeste 0 -- -- 59
2019-04-18 11:00:00 17.4 2 Sur 12 Sudoeste 0 -- -- 64
2019-04-18 10:00:00 14.5 4 Este 10 Este 0 -- -- 77
2019-04-18 09:00:00 11.9 6 Este 10 Sudeste 0 -- -- 90
2019-04-18 08:00:00 10.9 5 Sudeste 10 Este 0 -- -- 92
2019-04-18 07:00:00 10.7 8 Este 11 Este 0 -- -- 92
2019-04-18 06:00:00 10.9 5 Este 10 Este 0 -- -- 91
2019-04-18 05:00:00 11.2 4 Este 11 Este 0 -- -- 90
2019-04-18 04:00:00 10.6 5 Este 7 Este 0 -- -- 93
2019-04-18 03:00:00 10.8 0 Calma 8 Sur 0 -- -- 87
2019-04-18 02:00:00 12 5 Sudoeste 18 Sur 0 -- -- 80
2019-04-18 01:00:00 12.7 6 Sur 24 Sur 0 -- -- 78
2019-04-18 00:00:00 12.8 8 Sur 22 Sur 0 -- -- 75
2019-04-17 23:00:00 13 8 Sur 19 Sudoeste 0 -- -- 76
2019-04-17 22:00:00 13.4 9 Sudoeste 24 Sur 0.1 -- -- 77
2019-04-17 21:00:00 12.8 10 Sur 27 Sudeste 0.3 -- -- 84
2019-04-17 20:00:00 14.2 14 Sudeste 25 Sudeste 0 -- -- 70
2019-04-17 19:00:00 13.4 7 Sudoeste 23 Sudoeste 0 -- -- 91
2019-04-17 18:00:00 13.8 15 Sudoeste 45 Oeste 0 -- -- 82
2019-04-17 17:00:00 15.4 24 Oeste 44 Oeste 0 -- -- 70
2019-04-17 16:00:00 21.7 21 Sur 36 Sur 0 -- -- 45
2019-04-17 15:00:00 22.3 15 Sur 38 Sur 0 -- -- 47
2019-04-17 14:00:00 20 10 Sudeste 24 Este 0 -- -- 48
2019-04-17 13:00:00 18.8 11 Sudeste 19 Sudeste 0 -- -- 50
2019-04-17 12:00:00 17.6 8 Este 17 Sudeste 0 -- -- 52
2019-04-17 11:00:00 16.6 5 Este 12 Este 0 -- -- 57
2019-04-17 10:00:00 15.5 7 Este 11 Sudeste 0 -- -- 63
2019-04-17 09:00:00 12.1 5 Este 7 Este 0 -- -- 76
2019-04-17 08:00:00 10.4 3 Este 6 Este 0 -- -- 84
2019-04-17 07:00:00 9.3 0 Calma 6 Norte 0 -- -- 84
2019-04-17 06:00:00 10.3 2 Noroeste 10 Sudeste 0 -- -- 73
2019-04-17 05:00:00 13.2 7 Este 14 Este 0 -- -- 60
2019-04-17 04:00:00 14.9 9 Sudeste 14 Este 0 -- -- 55
2019-04-17 03:00:00 15.2 8 Sudeste 13 Sudeste 0 -- -- 52
2019-04-17 02:00:00 15.5 7 Este 15 Este 0 -- -- 51
2019-04-17 01:00:00 17 8 Sudeste 17 Sudeste 0 -- -- 43
2019-04-17 00:00:00 17.7 9 Sudeste 13 Sudeste 0 -- -- 40
2019-04-16 23:00:00 18.8 10 Sudeste 19 Sudeste 0 -- -- 37
2019-04-16 22:00:00 20.1 12 Sudeste 19 Sur 0 -- -- 33
2019-04-16 21:00:00 21.5 13 Sur 23 Sudeste 0 -- -- 31
2019-04-16 20:00:00 23.9 11 Sudeste 22 Sudeste 0 -- -- 29
2019-04-16 19:00:00 24.5 14 Sudeste 27 Sudeste 0 -- -- 28
2019-04-16 18:00:00 25.5 15 Este 29 Este 0 -- -- 30
2019-04-16 17:00:00 25.2 13 Este 30 Este 0 -- -- 31
2019-04-16 16:00:00 24.4 13 Este 32 Sudeste 0 -- -- 32
2019-04-16 15:00:00 22.9 12 Este 22 Este 0 -- -- 35
2019-04-16 14:00:00 21.8 6 Nordeste 22 Este 0 -- -- 41
2019-04-16 13:00:00 19.6 8 Sudeste 22 Sudeste 0 -- -- 46
2019-04-16 12:00:00 18.5 6 Este 15 Este 0 -- -- 53
2019-04-16 11:00:00 15.7 7 Este 15 Este 0 -- -- 63
2019-04-16 10:00:00 13.8 5 Este 9 Este 0 -- -- 70
2019-04-16 09:00:00 11.7 2 Nordeste 4 Este 0 -- -- 82
2019-04-16 08:00:00 7.4 5 Este 8 Este 0 -- -- 99
2019-04-16 07:00:00 5.2 0 Calma 5 Sudeste 0 -- -- 99
2019-04-16 06:00:00 7.1 2 Sur 5 Sudeste 0 -- -- 99
2019-04-16 05:00:00 8.4 4 Sudoeste 9 Sudoeste 0 -- -- 98
2019-04-16 04:00:00 9.9 6 Sudoeste 12 Sudoeste 0 -- -- 94
2019-04-16 03:00:00 9.9 5 Sudoeste 12 Sudoeste 0 -- -- 91
2019-04-16 02:00:00 10.5 5 Sudoeste 15 Sudoeste 0 -- -- 87
2019-04-16 01:00:00 11.2 4 Sudoeste 13 Sudoeste 0 -- -- 82
2019-04-16 00:00:00 11.9 6 Sudoeste 10 Oeste 0 -- -- 77
2019-04-15 23:00:00 12.4 0 Calma 10 Oeste 0 -- -- 69
2019-04-15 22:00:00 15.5 6 Oeste 17 Oeste 0 -- -- 57
2019-04-15 21:00:00 17.5 9 Oeste 26 Noroeste 0 -- -- 54
2019-04-15 20:00:00 20.3 11 Oeste 25 Oeste 0 -- -- 46
2019-04-15 19:00:00 20 17 Oeste 32 Oeste 0 -- -- 48
2019-04-15 18:00:00 20.3 14 Oeste 57 Oeste 0 -- -- 51
2019-04-15 17:00:00 18.2 16 Oeste 32 Oeste 0 -- -- 56
2019-04-15 16:00:00 18.6 17 Oeste 35 Oeste 0 -- -- 53
2019-04-15 15:00:00 23.2 12 Oeste 32 Oeste 0 -- -- 42
2019-04-15 14:00:00 22.2 15 Oeste 37 Sudoeste 0 -- -- 41
2019-04-15 13:00:00 19.9 15 Oeste 29 Oeste 0 -- -- 53
2019-04-15 12:00:00 20.2 17 Oeste 26 Oeste 0 -- -- 56
2019-04-15 11:00:00 18.9 10 Oeste 19 Oeste 0 -- -- 65
2019-04-15 10:00:00 16.3 11 Oeste 19 Oeste 0 -- -- 83
2019-04-15 09:00:00 13.6 5 Oeste 9 Oeste 0 -- -- 94
2019-04-15 08:00:00 12.1 0 Calma 7 Sudeste 0 -- -- 94
2019-04-15 07:00:00 13.6 0 Calma 11 Este 0 -- -- 91
2019-04-15 06:00:00 13.6 9 Este 11 Este 0 -- -- 96
2019-04-15 05:00:00 12.4 0 Calma 6 Sur 0 -- -- 95
2019-04-15 04:00:00 13.5 0 Calma 7 Este 0 -- -- 91
2019-04-15 03:00:00 15.5 7 Este 9 Este 0 -- -- 85
2019-04-15 02:00:00 14.4 0 Calma 3 Sur 0 -- -- 89
2019-04-15 01:00:00 16 0 Calma 7 Este 0 -- -- 80
2019-04-15 00:00:00 17.2 2 Este 9 Este 0 -- -- 72
2019-04-14 23:00:00 16.6 0 Calma 6 Este 0 -- -- 75
2019-04-14 22:00:00 18.7 4 Este 6 Este 0 -- -- 67
2019-04-14 21:00:00 18.9 2 Sudeste 6 Nordeste 0 -- -- 59
2019-04-14 20:00:00 23.8 0 Calma 9 Norte 0 -- -- 47
2019-04-14 19:00:00 23.8 0 Calma 12 Noroeste 0 -- -- 44
2019-04-14 18:00:00 24.7 5 Oeste 26 Oeste 0 -- -- 43
2019-04-14 17:00:00 24.8 3 Noroeste 15 Norte 0 -- -- 44
2019-04-14 16:00:00 22.5 4 Sudoeste 12 Oeste 0 -- -- 49
2019-04-14 15:00:00 24 3 Noroeste 13 Oeste 0 -- -- 47
2019-04-14 14:00:00 23 0 Calma 10 Noroeste 0 -- -- 50
2019-04-14 13:00:00 20.9 2 Sudoeste 9 Norte 0 -- -- 57
2019-04-14 12:00:00 18.7 3 Noroeste 12 Oeste 0 -- -- 67
2019-04-14 11:00:00 16.8 0 Calma 8 Oeste 0 -- -- 76
2019-04-14 10:00:00 15.3 0 Calma 3 Oeste 0 -- -- 87
2019-04-14 09:00:00 13.3 0 Calma 3 Oeste 0 -- -- 99
2019-04-14 08:00:00 12.2 0 Calma 2 Norte 0 -- -- 99
2019-04-14 07:00:00 10.2 0 Calma 2 Oeste 0 -- -- 99
2019-04-14 06:00:00 10.9 0 Calma 8 Sudoeste 0 -- -- 99
2019-04-14 05:00:00 11.4 0 Calma 7 Sudoeste 0 -- -- 99
2019-04-14 04:00:00 12.1 2 Oeste 11 Oeste 0 -- -- 98
2019-04-14 03:00:00 12.9 5 Sudoeste 12 Sudoeste 0 -- -- 96
2019-04-14 02:00:00 14 8 Oeste 15 Oeste 0 -- -- 89
2019-04-14 01:00:00 14.4 6 Sudoeste 13 Oeste 0 -- -- 87
2019-04-14 00:00:00 15.7 7 Oeste 16 Oeste 0 -- -- 77
2019-04-13 23:00:00 15.8 9 Oeste 15 Oeste 0 -- -- 67
2019-04-13 22:00:00 17.8 7 Oeste 17 Oeste 0 -- -- 54
2019-04-13 21:00:00 18.2 7 Oeste 15 Oeste 0 -- -- 47
2019-04-13 20:00:00 20.7 10 Oeste 24 Oeste 0 -- -- 39
2019-04-13 19:00:00 20.7 13 Oeste 35 Sudoeste 0 -- -- 34
2019-04-13 18:00:00 24 11 Oeste 24 Sudoeste 0 -- -- 28
2019-04-13 17:00:00 24.6 10 Oeste 25 Oeste 0 -- -- 28
2019-04-13 16:00:00 23.4 9 Oeste 28 Oeste 0 -- -- 31
2019-04-13 15:00:00 22.6 8 Oeste 21 Oeste 0 -- -- 33
2019-04-13 14:00:00 22.3 9 Oeste 22 Oeste 0 -- -- 36
2019-04-13 13:00:00 20.7 3 Oeste 15 Oeste 0 -- -- 42
2019-04-13 12:00:00 19.2 5 Oeste 14 Oeste 0 -- -- 49
2019-04-13 11:00:00 16.6 7 Oeste 13 Oeste 0 -- -- 54
2019-04-13 10:00:00 12.5 4 Oeste 7 Oeste 0 -- -- 75
2019-04-13 09:00:00 10.3 0 Calma 2 Oeste 0 -- -- 91
2019-04-13 08:00:00 7.1 0 Calma 3 Noroeste 0 -- -- 98
2019-04-13 07:00:00 8.2 0 Calma 7 Oeste 0 -- -- 95
2019-04-13 06:00:00 7.9 3 Oeste 6 Oeste 0 -- -- 93
2019-04-13 05:00:00 8.3 3 Oeste 9 Oeste 0 -- -- 87
2019-04-13 04:00:00 9.3 7 Sudoeste 10 Sudoeste 0 -- -- 85
2019-04-13 03:00:00 8.5 5 Oeste 12 Sudoeste 0 -- -- 82
2019-04-13 02:00:00 7.9 5 Oeste 7 Oeste 0 -- -- 86
2019-04-13 01:00:00 9.8 0 Calma 7 Sudoeste 0 -- -- 72
2019-04-13 00:00:00 9.6 2 Sur 8 Sudoeste 0 -- -- 66
2019-04-12 23:00:00 11.5 3 Oeste 7 Sudoeste 0 -- -- 61
2019-04-12 22:00:00 10.9 0 Calma 4 Norte 0 -- -- 61
2019-04-12 21:00:00 15.3 3 Oeste 8 Oeste 0 -- -- 40
2019-04-12 20:00:00 20.6 5 Oeste 20 Oeste 0 -- -- 31
2019-04-12 19:00:00 21 3 Oeste 15 Oeste 0 -- -- 30
2019-04-12 18:00:00 21.5 5 Este 13 Norte 0 -- -- 29
2019-04-12 17:00:00 23.4 3 Oeste 19 Oeste 0 -- -- 27
2019-04-12 16:00:00 22.6 7 Norte 15 Norte 0 -- -- 29
2019-04-12 15:00:00 21.8 2 Nordeste 15 Nordeste 0 -- -- 30
2019-04-12 14:00:00 20.4 3 Nordeste 14 Este 0 -- -- 33
2019-04-12 13:00:00 19.3 4 Norte 14 Este 0 -- -- 38
2019-04-12 12:00:00 17.3 5 Nordeste 15 Este 0 -- -- 45
2019-04-12 11:00:00 13.7 5 Este 12 Este 0 -- -- 58
2019-04-12 10:00:00 11.9 0 Calma 6 Nordeste 0 -- -- 66
2019-04-12 09:00:00 9 4 Este 5 Este 0 -- -- 85
2019-04-12 08:00:00 3 0 Calma 3 Sur 0 -- -- 99
2019-04-12 07:00:00 3.2 0 Calma 4 Norte 0 -- -- 99
2019-04-12 06:00:00 3.6 0 Calma 5 Sudoeste 0 -- -- 99
2019-04-12 05:00:00 5 2 Oeste 5 Oeste 0 -- -- 99
2019-04-12 04:00:00 6.4 0 Calma 7 Oeste 0 -- -- 97
2019-04-12 03:00:00 7.5 5 Oeste 12 Sudoeste 0 -- -- 92
2019-04-12 02:00:00 9.2 6 Sudoeste 13 Sudoeste 0 -- -- 83
2019-04-12 01:00:00 8.2 6 Sudoeste 10 Oeste 0 -- -- 78
2019-04-12 00:00:00 7.9 3 Oeste 5 Oeste 0 -- -- 80
2019-04-11 23:00:00 8.9 0 Calma 5 Sudoeste 0 -- -- 74
2019-04-11 22:00:00 10.5 4 Sudoeste 7 Oeste 0 -- -- 64
2019-04-11 21:00:00 13.7 3 Noroeste 10 Norte 0 -- -- 47
2019-04-11 20:00:00 18.5 8 Norte 19 Norte 0 -- -- 34
2019-04-11 19:00:00 19.5 8 Noroeste 20 Noroeste 0 -- -- 32
2019-04-11 18:00:00 19.6 11 Oeste 23 Noroeste 0 -- -- 30
2019-04-11 17:00:00 20.2 9 Noroeste 23 Oeste 0 -- -- 31
2019-04-11 16:00:00 21.5 7 Oeste 23 Oeste 0 -- -- 34
2019-04-11 15:00:00 19.1 3 Norte 17 Oeste 0 -- -- 38
2019-04-11 14:00:00 19.9 3 Oeste 14 Oeste 0 -- -- 40
2019-04-11 13:00:00 17.5 3 Sudoeste 12 Oeste 0 -- -- 47
2019-04-11 12:00:00 15.8 3 Noroeste 10 Oeste 0 -- -- 53
2019-04-11 11:00:00 14 3 Oeste 10 Oeste 0 -- -- 62
2019-04-11 10:00:00 11.5 7 Oeste 12 Sudoeste 0 -- -- 74
2019-04-11 09:00:00 9.2 3 Oeste 7 Oeste 0 -- -- 89
2019-04-11 08:00:00 4.3 2 Oeste 6 Oeste 0 -- -- 99
2019-04-11 07:00:00 5.3 3 Oeste 12 Oeste 0 -- -- 99
2019-04-11 06:00:00 6.8 8 Sudoeste 21 Sudoeste 0 -- -- 97
2019-04-11 05:00:00 6.2 5 Oeste 13 Oeste 0 -- -- 96
2019-04-11 04:00:00 7.2 5 Sudoeste 13 Sudoeste 0 -- -- 94
2019-04-11 03:00:00 7.4 5 Sudoeste 11 Sudoeste 0 -- -- 91
2019-04-11 02:00:00 8 6 Sudoeste 13 Sudoeste 0 -- -- 89
2019-04-11 01:00:00 8.8 5 Sudoeste 14 Sudoeste 0 -- -- 83
2019-04-11 00:00:00 10.4 9 Oeste 14 Oeste 0 -- -- 76
2019-04-10 23:00:00 11.8 7 Oeste 19 Oeste 0 -- -- 66
2019-04-10 22:00:00 13 6 Oeste 21 Oeste 0 -- -- 56
2019-04-10 21:00:00 14.5 12 Oeste 30 Oeste 0 -- -- 49
2019-04-10 20:00:00 16.5 16 Oeste 34 Oeste 0 -- -- 44
2019-04-10 19:00:00 17.2 18 Oeste 35 Oeste 0 -- -- 41
2019-04-10 18:00:00 17.6 12 Noroeste 30 Noroeste 0 -- -- 40
2019-04-10 17:00:00 19 15 Noroeste 35 Oeste 0 -- -- 40
2019-04-10 16:00:00 19.5 15 Noroeste 33 Oeste 0 -- -- 41
2019-04-10 15:00:00 17.4 17 Oeste 36 Norte 0 -- -- 42
2019-04-10 14:00:00 17.2 15 Oeste 32 Oeste 0 -- -- 44
2019-04-10 13:00:00 15.9 14 Noroeste 30 Noroeste 0 -- -- 48
2019-04-10 12:00:00 14.7 12 Oeste 23 Oeste 0 -- -- 56
2019-04-10 11:00:00 13 13 Oeste 21 Oeste 0 -- -- 70
2019-04-10 10:00:00 10.5 8 Oeste 18 Oeste 0 -- -- 88
2019-04-10 09:00:00 8.1 12 Oeste 18 Oeste 0 -- -- 99
2019-04-10 08:00:00 7.2 5 Oeste 16 Oeste 0 -- -- 99
2019-04-10 07:00:00 7.3 8 Sudoeste 17 Oeste 0 -- -- 99
2019-04-10 06:00:00 6.7 6 Oeste 15 Sudoeste 0 -- -- 99
2019-04-10 05:00:00 7.2 9 Sudoeste 18 Sudoeste 0 -- -- 99
2019-04-10 04:00:00 7.5 9 Sudoeste 17 Sudoeste 0 -- -- 98
2019-04-10 03:00:00 7.7 8 Sudoeste 23 Oeste 0 -- -- 94
2019-04-10 02:00:00 9.2 12 Oeste 23 Oeste 0 -- -- 87
2019-04-10 01:00:00 9 10 Sudoeste 20 Oeste 0 -- -- 86
2019-04-10 00:00:00 9.8 9 Sudoeste 27 Oeste 0 -- -- 81
2019-04-09 23:00:00 11.1 14 Oeste 35 Oeste 0 -- -- 72
2019-04-09 22:00:00 11.9 14 Oeste 30 Oeste 0 -- -- 64
2019-04-09 21:00:00 13.7 17 Oeste 38 Oeste 0 -- -- 57
2019-04-09 20:00:00 15.3 15 Oeste 44 Oeste 0 -- -- 49
2019-04-09 19:00:00 16.4 15 Oeste 41 Oeste 0 -- -- 50
2019-04-09 18:00:00 16.7 20 Oeste 48 Oeste 0 -- -- 51
2019-04-09 17:00:00 16.4 19 Oeste 42 Oeste 0.5 -- -- 57
2019-04-09 16:00:00 12.2 15 Noroeste 44 Noroeste 0 -- -- 73
2019-04-09 15:00:00 16.2 23 Oeste 53 Oeste 0 -- -- 55
2019-04-09 14:00:00 15 22 Oeste 40 Oeste 0 -- -- 56
2019-04-09 13:00:00 14.4 23 Oeste 44 Sudoeste 0.1 -- -- 59
2019-04-09 12:00:00 13.6 23 Oeste 41 Oeste 0 -- -- 72
2019-04-09 11:00:00 12.5 14 Oeste 32 Oeste 0.4 -- -- 81
2019-04-09 10:00:00 11 12 Sudoeste 26 Sudoeste 0 -- -- 89
2019-04-09 09:00:00 10.1 14 Sudoeste 27 Sudoeste 0 -- -- 93
2019-04-09 08:00:00 8.6 7 Sudoeste 14 Sudoeste 0 -- -- 99
2019-04-09 07:00:00 8.2 7 Sudoeste 14 Sudoeste 0 -- -- 99
2019-04-09 06:00:00 7.9 7 Sudoeste 13 Sudoeste 0 -- -- 99
2019-04-09 05:00:00 7.3 6 Sudoeste 13 Sudoeste 0 -- -- 99
2019-04-09 04:00:00 8 4 Oeste 12 Sudoeste 0 -- -- 97
2019-04-09 03:00:00 7.6 6 Sudoeste 14 Sudoeste 0 -- -- 96
2019-04-09 02:00:00 7.8 7 Sudoeste 18 Sudoeste 0 -- -- 94
2019-04-09 01:00:00 9.3 8 Sudoeste 15 Sudoeste 0 -- -- 93
2019-04-09 00:00:00 9.3 5 Sudoeste 13 Sudoeste 0 -- -- 93
2019-04-08 23:00:00 9.7 6 Sudoeste 12 Sudoeste 0 -- -- 93
2019-04-08 22:00:00 9.5 6 Sudoeste 13 Oeste 0 -- -- 90
2019-04-08 21:00:00 10.8 6 Oeste 28 Oeste 0.2 -- -- 88
2019-04-08 20:00:00 12.1 17 Oeste 47 Oeste 0 -- -- 72
2019-04-08 19:00:00 16.6 14 Oeste 28 Sudoeste 0 -- -- 46
2019-04-08 18:00:00 17.3 15 Oeste 28 Oeste 0 -- -- 39
2019-04-08 17:00:00 18.2 15 Oeste 31 Oeste 0 -- -- 36
2019-04-08 16:00:00 18.8 15 Oeste 36 Oeste 0 -- -- 38
2019-04-08 15:00:00 17.4 18 Oeste 36 Oeste 0 -- -- 42
2019-04-08 14:00:00 16.4 14 Oeste 32 Oeste 0 -- -- 50
2019-04-08 13:00:00 15.6 12 Oeste 27 Oeste 0 -- -- 58
2019-04-08 12:00:00 14.4 11 Oeste 23 Oeste 0 -- -- 72
2019-04-08 11:00:00 14 11 Oeste 23 Sudoeste 0 -- -- 78
2019-04-08 10:00:00 12.9 8 Oeste 15 Oeste 0 -- -- 96
2019-04-08 09:00:00 11.6 6 Sudoeste 10 Sudoeste 0 -- -- 99
2019-04-08 08:00:00 10.8 0 Calma 22 Oeste 0.1 -- -- 99
2019-04-08 07:00:00 11.7 8 Oeste 28 Sur 0.5 -- -- 98
2019-04-08 06:00:00 11.8 12 Sudoeste 30 Sudoeste 0.7 -- -- 93
2019-04-08 05:00:00 11.7 9 Sudoeste 22 Sudoeste 0.4 -- -- 94
2019-04-08 04:00:00 12.2 10 Sudoeste 21 Sudoeste 0 -- -- 91
2019-04-08 03:00:00 12.4 9 Sudoeste 20 Sudoeste 0 -- -- 93
2019-04-08 02:00:00 12.1 7 Sudoeste 19 Sudoeste 0 -- -- 96
2019-04-08 01:00:00 12 9 Sudoeste 22 Sudoeste 0 -- -- 98
2019-04-08 00:00:00 12.6 7 Sudoeste 21 Sudoeste 0 -- -- 99
2019-04-07 23:00:00 12.3 5 Sudoeste 14 Sudoeste 0 -- -- 99
2019-04-07 22:00:00 12.6 7 Sudoeste 14 Sudoeste 0 -- -- 99
2019-04-07 21:00:00 12.4 8 Sudoeste 19 Oeste 0.2 -- -- 99
2019-04-07 20:00:00 13 4 Oeste 8 Oeste 1.5 -- -- 99
2019-04-07 19:00:00 13.3 3 Sudoeste 10 Oeste 0.3 -- -- 93
2019-04-07 18:00:00 13.7 6 Sur 17 Sur 0 -- -- 80
2019-04-07 17:00:00 13.4 9 Sur 19 Sudoeste 0 -- -- 79
2019-04-07 16:00:00 13.6 8 Sur 24 Sudoeste 0 -- -- 82
2019-04-07 15:00:00 13.4 8 Sudoeste 19 Sudoeste 0.3 -- -- 87
2019-04-07 14:00:00 13 6 Sur 22 Sudoeste 0 -- -- 72
2019-04-07 13:00:00 13.5 5 Sudoeste 12 Sudoeste 0 -- -- 69
2019-04-07 12:00:00 13.5 3 Noroeste 9 Oeste 0 -- -- 74
2019-04-07 11:00:00 11.5 3 Oeste 7 Oeste 0 -- -- 89
2019-04-07 10:00:00 9.4 4 Oeste 9 Oeste 0 -- -- 99
2019-04-07 09:00:00 8.8 4 Oeste 14 Sudoeste 0 -- -- 99
2019-04-07 08:00:00 8.3 8 Sudoeste 16 Sudoeste 0 -- -- 99
2019-04-07 07:00:00 8.3 10 Sudoeste 24 Sudoeste 0.1 -- -- 99
2019-04-07 06:00:00 8.4 14 Sudoeste 27 Oeste 1.3 -- -- 99
2019-04-07 05:00:00 9 12 Oeste 26 Oeste 0.1 -- -- 96
2019-04-07 04:00:00 8.7 14 Sudoeste 29 Oeste 0 -- -- 96
2019-04-07 03:00:00 8.8 16 Sudoeste 28 Oeste 0 -- -- 96
2019-04-07 02:00:00 8.5 14 Sudoeste 28 Sudoeste 0 -- -- 96
2019-04-07 01:00:00 8.4 9 Sudoeste 21 Sudoeste 0.2 -- -- 97
2019-04-07 00:00:00 8.9 8 Sudoeste 21 Oeste 0 -- -- 87
2019-04-06 23:00:00 9.4 13 Oeste 20 Oeste 0 -- -- 82
2019-04-06 22:00:00 8.8 5 Sudoeste 23 Sudoeste 0 -- -- 84
2019-04-06 21:00:00 10.1 15 Oeste 35 Sudoeste 0 -- -- 77
2019-04-06 20:00:00 10.8 9 Oeste 33 Oeste 0.6 -- -- 80
2019-04-06 19:00:00 9.7 11 Noroeste 48 Oeste 0.2 -- -- 77
2019-04-06 18:00:00 13 18 Oeste 42 Oeste 0 -- -- 52
2019-04-06 17:00:00 14.7 21 Oeste 39 Oeste 0 -- -- 54
2019-04-06 16:00:00 11 20 Oeste 49 Oeste 0.2 -- -- 70
2019-04-06 15:00:00 8.4 26 Noroeste 68 Oeste 0 -- -- 72
2019-04-06 14:00:00 14.6 18 Oeste 44 Oeste 0 -- -- 52
2019-04-06 13:00:00 12 20 Oeste 39 Oeste 0.2 -- -- 74
2019-04-06 12:00:00 13 22 Oeste 44 Oeste 0 -- -- 63
2019-04-06 11:00:00 11.4 19 Sudoeste 40 Sudoeste 0.1 -- -- 74
2019-04-06 10:00:00 11.2 18 Sudoeste 40 Sudoeste 0 -- -- 77
2019-04-06 09:00:00 8.7 14 Sudoeste 29 Sudoeste 0 -- -- 90
2019-04-06 08:00:00 6.9 11 Sudoeste 23 Sudoeste 0 -- -- 98
2019-04-06 07:00:00 7.3 12 Sudoeste 25 Sudoeste 0.1 -- -- 99
2019-04-06 06:00:00 6.6 10 Sudoeste 18 Sudoeste 0 -- -- 99
2019-04-06 05:00:00 6.2 6 Sudoeste 23 Oeste 0 -- -- 97
2019-04-06 04:00:00 7.6 14 Sudoeste 26 Oeste 0 -- -- 91
2019-04-06 03:00:00 7.5 11 Oeste 26 Sudoeste 0 -- -- 93
2019-04-06 02:00:00 7.3 10 Sudoeste 27 Sudoeste 0 -- -- 93
2019-04-06 01:00:00 6.9 11 Sudoeste 24 Oeste 0 -- -- 94
2019-04-06 00:00:00 7.1 11 Sudoeste 27 Sudoeste 0 -- -- 91
2019-04-05 23:00:00 7.6 14 Oeste 30 Sudoeste 0 -- -- 88
2019-04-05 22:00:00 8.2 10 Sudoeste 31 Oeste 0 -- -- 83
2019-04-05 21:00:00 9 14 Oeste 26 Oeste 0 -- -- 81
2019-04-05 20:00:00 9.5 13 Oeste 32 Oeste 0.1 -- -- 79
2019-04-05 19:00:00 9.3 11 Sudoeste 41 Sudoeste 0.2 -- -- 78
2019-04-05 18:00:00 11.7 18 Oeste 40 Oeste 0 -- -- 51
2019-04-05 17:00:00 13 22 Oeste 39 Sudoeste 0 -- -- 52
2019-04-05 16:00:00 12.9 12 Oeste 46 Sudoeste 0.4 -- -- 56
2019-04-05 15:00:00 10.7 18 Oeste 38 Oeste 0 -- -- 57
2019-04-05 14:00:00 11.5 19 Oeste 38 Oeste 0 -- -- 59
2019-04-05 13:00:00 9.2 16 Oeste 30 Sudoeste 0 -- -- 72
2019-04-05 12:00:00 9.7 10 Oeste 26 Oeste 0.1 -- -- 78
2019-04-05 11:00:00 6.6 5 Noroeste 49 Oeste 0 -- -- 85
2019-04-05 10:00:00 5.9 22 Oeste 47 Oeste 0.2 -- -- 93
2019-04-05 09:00:00 8.7 9 Sudoeste 19 Sudoeste 0.1 -- -- 96
2019-04-05 08:00:00 8.5 7 Sudoeste 21 Sudoeste 0.3 -- -- 95
2019-04-05 07:00:00 8.6 8 Sudoeste 22 Sudoeste 0.5 -- -- 92
2019-04-05 06:00:00 9 9 Sudoeste 22 Sudoeste 0 -- -- 86
2019-04-05 05:00:00 8.4 9 Sur 30 Sur 0.9 -- -- 92
2019-04-05 04:00:00 8.4 9 Sur 24 Sur 3.1 -- -- 97
2019-04-05 03:00:00 7.7 8 Sur 18 Sur 1.3 -- -- 96
2019-04-05 02:00:00 8.6 6 Sudoeste 16 Sudoeste 0.1 -- -- 95
2019-04-05 01:00:00 8.3 6 Sudoeste 26 Oeste 0.4 -- -- 96
2019-04-05 00:00:00 9.1 8 Oeste 30 Oeste 0 -- -- 86
2019-04-04 23:00:00 11.7 17 Oeste 31 Oeste 0 -- -- 51
2019-04-04 22:00:00 13.2 14 Oeste 32 Oeste 0 -- -- 45
2019-04-04 21:00:00 13.7 12 Oeste 25 Oeste 0 -- -- 41
2019-04-04 20:00:00 14.3 11 Oeste 32 Oeste 0 -- -- 37
2019-04-04 19:00:00 16 18 Oeste 35 Oeste 0 -- -- 31
2019-04-04 18:00:00 17.7 14 Sudoeste 30 Sudoeste 0 -- -- 29
2019-04-04 17:00:00 18.2 12 Oeste 30 Oeste 0 -- -- 30
2019-04-04 16:00:00 17.7 9 Oeste 21 Oeste 0 -- -- 30
2019-04-04 15:00:00 17.4 6 Oeste 17 Oeste 0 -- -- 30
2019-04-04 14:00:00 16.2 3 Noroeste 15 Noroeste 0 -- -- 34
2019-04-04 13:00:00 14.7 6 Oeste 18 Sudoeste 0 -- -- 38
2019-04-04 12:00:00 13.3 6 Noroeste 15 Noroeste 0 -- -- 40
2019-04-04 11:00:00 11.2 6 Noroeste 15 Noroeste 0 -- -- 46
2019-04-04 10:00:00 9.5 6 Oeste 15 Oeste 0 -- -- 52
2019-04-04 09:00:00 7.2 6 Oeste 15 Oeste 0 -- -- 62
2019-04-04 08:00:00 4 7 Sudoeste 15 Sudoeste 0 -- -- 69
2019-04-04 07:00:00 3.6 5 Sudoeste 9 Oeste 0 -- -- 69
2019-04-04 06:00:00 6.4 6 Noroeste 18 Noroeste 0 -- -- 59
2019-04-04 05:00:00 6.6 4 Oeste 11 Oeste 0 -- -- 59
2019-04-04 04:00:00 6.5 0 Calma 13 Noroeste 0 -- -- 64
2019-04-04 03:00:00 5.3 3 Sudoeste 10 Sudoeste 0 -- -- 70
2019-04-04 02:00:00 6.2 5 Oeste 10 Oeste 0 -- -- 66
2019-04-04 01:00:00 7 3 Oeste 8 Noroeste 0 -- -- 60
2019-04-04 00:00:00 8.5 4 Noroeste 10 Noroeste 0 -- -- 51
2019-04-03 23:00:00 10.9 5 Oeste 14 Norte 0 -- -- 44
2019-04-03 22:00:00 13.2 6 Norte 16 Noroeste 0 -- -- 38
2019-04-03 21:00:00 15.2 6 Noroeste 16 Noroeste 0 -- -- 34
2019-04-03 20:00:00 16.9 11 Noroeste 23 Noroeste 0 -- -- 33
2019-04-03 19:00:00 18.1 10 Noroeste 28 Noroeste 0 -- -- 32
2019-04-03 18:00:00 19 13 Noroeste 29 Oeste 0 -- -- 31
2019-04-03 17:00:00 19.5 13 Oeste 33 Oeste 0 -- -- 33
2019-04-03 16:00:00 19 11 Noroeste 29 Oeste 0 -- -- 38
2019-04-03 15:00:00 19 10 Noroeste 32 Oeste 0 -- -- 39
2019-04-03 14:00:00 17 15 Oeste 32 Oeste 0 -- -- 46
2019-04-03 13:00:00 15.4 9 Oeste 24 Oeste 0 -- -- 52
2019-04-03 12:00:00 13.8 8 Oeste 20 Oeste 0 -- -- 59
2019-04-03 11:00:00 10.8 12 Oeste 20 Oeste 0 -- -- 72
2019-04-03 10:00:00 8.4 10 Oeste 18 Oeste 0 -- -- 91
2019-04-03 09:00:00 7.4 3 Oeste 12 Oeste 0 -- -- 99
2019-04-03 08:00:00 6.6 8 Oeste 13 Oeste 0 -- -- 99
2019-04-03 07:00:00 6.9 4 Oeste 17 Oeste 0 -- -- 98
2019-04-03 06:00:00 8.5 9 Sudoeste 17 Sudoeste 0 -- -- 97
2019-04-03 05:00:00 8.5 6 Oeste 14 Sudoeste 0 -- -- 97
2019-04-03 04:00:00 8.3 6 Sudoeste 12 Oeste 0 -- -- 96
2019-04-03 03:00:00 9.2 6 Sudoeste 12 Sudoeste 0 -- -- 93
2019-04-03 02:00:00 10.8 5 Sudoeste 12 Sudoeste 0 -- -- 89
2019-04-03 01:00:00 9.8 4 Sudoeste 8 Oeste 0 -- -- 89
2019-04-03 00:00:00 10.3 3 Sur 9 Sudoeste 0 -- -- 80
2019-04-02 23:00:00 13 6 Sudoeste 12 Sudoeste 0 -- -- 66
2019-04-02 22:00:00 13.8 6 Oeste 11 Oeste 0 -- -- 59
2019-04-02 21:00:00 15.5 6 Oeste 18 Oeste 0 -- -- 46
2019-04-02 20:00:00 19.9 9 Oeste 25 Oeste 0 -- -- 35
2019-04-02 19:00:00 20.8 10 Oeste 24 Oeste 0 -- -- 38
2019-04-02 18:00:00 21.8 11 Oeste 25 Oeste 0 -- -- 36
2019-04-02 17:00:00 21.5 7 Sudoeste 21 Oeste 0 -- -- 38
2019-04-02 16:00:00 21.3 8 Oeste 20 Oeste 0 -- -- 37
2019-04-02 15:00:00 20 6 Sudoeste 15 Oeste 0 -- -- 44
2019-04-02 14:00:00 19.2 6 Oeste 15 Oeste 0 -- -- 46
2019-04-02 13:00:00 17.1 3 Oeste 12 Oeste 0 -- -- 60
2019-04-02 12:00:00 14.5 4 Oeste 9 Oeste 0 -- -- 73
2019-04-02 11:00:00 11.4 2 Noroeste 6 Oeste 0 -- -- 99
2019-04-02 10:00:00 10 2 Este 5 Este 0 -- -- 99
2019-04-02 09:00:00 9.4 0 Calma 6 Noroeste 0 -- -- 99
2019-04-02 08:00:00 9.1 3 Noroeste 8 Noroeste 0 -- -- 99
2019-04-02 07:00:00 5.2 0 Calma 3 Sur 0.1 -- -- 99
2019-04-02 06:00:00 5.7 0 Calma 3 Sur 0 -- -- 99
2019-04-02 05:00:00 7.4 0 Calma 5 Sudeste 0 -- -- 99
2019-04-02 04:00:00 6.7 0 Calma 4 Nordeste 0 -- -- 99
2019-04-02 03:00:00 7.4 0 Calma 5 Sudeste 0 -- -- 99
2019-04-02 02:00:00 8.2 2 Sudeste 5 Sudeste 0 -- -- 99
2019-04-02 01:00:00 8 3 Sudeste 5 Sudeste 0 -- -- 99
2019-04-02 00:00:00 9.2 0 Calma 8 Norte 0 -- -- 99
2019-04-01 23:00:00 11.7 5 Noroeste 9 Noroeste 0 -- -- 93
2019-04-01 22:00:00 11.6 4 Sur 12 Sudoeste 0 -- -- 90
2019-04-01 21:00:00 12.3 7 Sur 16 Sudeste 0.1 -- -- 91
2019-04-01 20:00:00 12.6 11 Sudoeste 29 Sudoeste 0.3 -- -- 87
2019-04-01 19:00:00 16.6 0 Calma 19 Nordeste 0 -- -- 59
2019-04-01 18:00:00 16.6 6 Nordeste 30 Este 0 -- -- 62
2019-04-01 17:00:00 15.8 9 Este 24 Sudeste 0 -- -- 60
2019-04-01 16:00:00 18.1 6 Noroeste 12 Norte 0 -- -- 57
2019-04-01 15:00:00 19.7 5 Norte 14 Nordeste 0 -- -- 51
2019-04-01 14:00:00 19.1 5 Nordeste 16 Este 0 -- -- 57
2019-04-01 13:00:00 16.9 7 Nordeste 16 Este 0 -- -- 68
2019-04-01 12:00:00 16.1 8 Nordeste 15 Este 0 -- -- 73
2019-04-01 11:00:00 13.8 7 Nordeste 17 Este 0 -- -- 86
2019-04-01 10:00:00 12.6 7 Nordeste 12 Este 0 -- -- 94
2019-04-01 09:00:00 11.9 6 Nordeste 13 Este 0 -- -- 98
2019-04-01 08:00:00 11.5 7 Este 12 Este 0 -- -- 98
2019-04-01 07:00:00 11.7 7 Este 16 Nordeste 1 -- -- 96
2019-04-01 06:00:00 12 8 Nordeste 14 Nordeste 1 -- -- 93
2019-04-01 05:00:00 12.8 6 Nordeste 11 Nordeste 0 -- -- 87
2019-04-01 04:00:00 12.8 0 Calma 6 Este 0 -- -- 89
2019-04-01 03:00:00 12.7 5 Este 7 Este 0 -- -- 90
2019-04-01 02:00:00 12.8 2 Este 9 Sudeste 0 -- -- 87
2019-04-01 01:00:00 12.8 5 Sudeste 9 Sudeste 0 -- -- 81
2019-04-01 00:00:00 13.5 3 Nordeste 8 Norte 0 -- -- 77
2019-03-31 23:00:00 12.7 0 Calma 13 Sudoeste 0 -- -- 80
2019-03-31 22:00:00 13.4 8 Sudoeste 17 Sudoeste 0 -- -- 77
2019-03-31 21:00:00 13.6 6 Sur 24 Sudeste 0 -- -- 76
2019-03-31 20:00:00 14.2 19 Sudeste 35 Sudeste 0 -- -- 70
2019-03-31 19:00:00 18.3 13 Este 33 Nordeste 0 -- -- 46
2019-03-31 18:00:00 18.6 22 Nordeste 35 Nordeste 0 -- -- 46
2019-03-31 17:00:00 21.1 9 Norte 19 Norte 0 -- -- 44
2019-03-31 16:00:00 21.9 4 Noroeste 15 Sudoeste 0 -- -- 45
2019-03-31 15:00:00 20.1 9 Sudoeste 18 Oeste 0 -- -- 49
2019-03-31 14:00:00 20.2 4 Sudoeste 14 Oeste 0 -- -- 52
2019-03-31 13:00:00 19 4 Nordeste 10 Sudeste 0 -- -- 52
2019-03-31 12:00:00 17.9 0 Calma 8 Este 0 -- -- 59
2019-03-31 11:00:00 16.6 3 Noroeste 8 Norte 0 -- -- 63
2019-03-31 10:00:00 14.4 0 Calma 4 Oeste 0 -- -- 77
2019-03-31 09:00:00 8.9 0 Calma 5 Oeste 0 -- -- 99
2019-03-31 08:00:00 8.1 0 Calma 4 Sur 0 -- -- 99
2019-03-31 07:00:00 9 0 Calma 6 Este 0 -- -- 99
2019-03-31 06:00:00 9.7 0 Calma 9 Sudoeste 0 -- -- 99
2019-03-31 05:00:00 10.8 6 Sudoeste 18 Sudoeste 0 -- -- 94
2019-03-31 03:00:00 13.7 12 Este 24 Nordeste 0.3 -- -- 86
2019-03-31 01:00:00 13.1 7 Sur 11 Sur 0 -- -- 89
2019-03-31 00:00:00 13.1 0 Calma 12 Oeste 0.2 -- -- 90
2019-03-30 23:00:00 13.5 13 Sur 35 Sudeste 0.2 -- -- 82
2019-03-30 22:00:00 15.4 18 Sur 34 Sudeste 0 -- -- 66
2019-03-30 21:00:00 16.5 19 Sur 39 Sur 0 -- -- 57
2019-03-30 20:00:00 19 5 Norte 15 Norte 0 -- -- 46
2019-03-30 19:00:00 21.2 6 Nordeste 19 Este 0 -- -- 43
2019-03-30 18:00:00 21.9 7 Nordeste 20 Nordeste 0 -- -- 43
2019-03-30 17:00:00 23.4 6 Nordeste 27 Nordeste 0 -- -- 42
2019-03-30 16:00:00 22.5 11 Nordeste 27 Nordeste 0 -- -- 43
2019-03-30 15:00:00 22.2 10 Este 28 Nordeste 0 -- -- 44
2019-03-30 14:00:00 21.9 10 Nordeste 23 Nordeste 0 -- -- 46
2019-03-30 13:00:00 20.1 10 Nordeste 25 Este 0 -- -- 50
2019-03-30 12:00:00 19.1 10 Este 26 Nordeste 0 -- -- 53
2019-03-30 11:00:00 17.4 11 Nordeste 21 Nordeste 0 -- -- 59
2019-03-30 10:00:00 15.6 9 Nordeste 17 Este 0 -- -- 57
2019-03-30 09:00:00 12.7 6 Nordeste 19 Este 0 -- -- 62
2019-03-30 08:00:00 10 5 Este 10 Nordeste 0 -- -- 78
2019-03-30 07:00:00 8.3 4 Este 6 Este 0 -- -- 77
2019-03-30 06:00:00 9.1 4 Este 7 Nordeste 0 -- -- 67
2019-03-30 05:00:00 9.8 4 Nordeste 11 Este 0 -- -- 62
2019-03-30 04:00:00 10.6 5 Este 13 Este 0 -- -- 62
2019-03-30 03:00:00 10.7 8 Este 12 Este 0 -- -- 63
2019-03-30 02:00:00 11 9 Este 14 Este 0 -- -- 54
2019-03-30 01:00:00 11.4 8 Sudeste 14 Este 0 -- -- 49
2019-03-30 00:00:00 10.9 8 Este 11 Este 0 -- -- 47
2019-03-29 23:00:00 11.8 9 Este 13 Este 0 -- -- 44
2019-03-29 22:00:00 13.2 7 Este 16 Este 0 -- -- 42
2019-03-29 21:00:00 16 6 Nordeste 14 Nordeste 0 -- -- 36
2019-03-29 20:00:00 17.5 6 Nordeste 15 Nordeste 0 -- -- 36
2019-03-29 19:00:00 20.4 5 Nordeste 15 Este 0 -- -- 33
2019-03-29 18:00:00 20.7 9 Este 17 Nordeste 0 -- -- 33
2019-03-29 17:00:00 22.8 6 Norte 20 Este 0 -- -- 32
2019-03-29 16:00:00 22.3 8 Nordeste 22 Nordeste 0 -- -- 32
2019-03-29 15:00:00 21.7 12 Nordeste 25 Este 0 -- -- 33
2019-03-29 14:00:00 21 7 Nordeste 19 Nordeste 0 -- -- 35
2019-03-29 13:00:00 20.4 7 Nordeste 19 Nordeste 0 -- -- 37
2019-03-29 12:00:00 18.6 9 Nordeste 18 Este 0 -- -- 41
2019-03-29 11:00:00 16.2 11 Nordeste 20 Este 0 -- -- 43
2019-03-29 10:00:00 14.6 10 Nordeste 19 Este 0 -- -- 52
2019-03-29 09:00:00 11 9 Nordeste 17 Nordeste 0 -- -- 61
2019-03-29 08:00:00 8.4 4 Nordeste 8 Nordeste 0 -- -- 69
2019-03-29 07:00:00 4.7 3 Este 9 Este 0 -- -- 72
2019-03-29 06:00:00 6.5 9 Este 14 Este 0 -- -- 68
2019-03-29 05:00:00 6.4 7 Este 11 Este 0 -- -- 68
2019-03-29 04:00:00 6.7 4 Este 12 Este 0 -- -- 64
2019-03-29 03:00:00 8.3 11 Este 21 Sudeste 0 -- -- 61
2019-03-29 02:00:00 10.5 8 Sudeste 14 Sudeste 0 -- -- 55
2019-03-29 01:00:00 7.9 4 Este 12 Sudeste 0 -- -- 57
2019-03-29 00:00:00 8.7 8 Sudeste 10 Sudeste 0 -- -- 56
2019-03-28 23:00:00 8.3 0 Calma 5 Este 0 -- -- 58
2019-03-28 22:00:00 9.1 4 Este 9 Sudeste 0 -- -- 50
2019-03-28 21:00:00 10.3 2 Sur 10 Sudeste 0 -- -- 40
2019-03-28 20:00:00 16.9 7 Este 20 Nordeste 0 -- -- 30
2019-03-28 19:00:00 20.4 9 Nordeste 23 Este 0 -- -- 29
2019-03-28 18:00:00 21.2 12 Nordeste 27 Nordeste 0 -- -- 29
2019-03-28 17:00:00 21.7 13 Nordeste 33 Este 0 -- -- 29
2019-03-28 16:00:00 21.8 15 Nordeste 39 Este 0 -- -- 29
2019-03-28 15:00:00 21.1 16 Este 30 Este 0 -- -- 29
2019-03-28 14:00:00 20.9 14 Nordeste 30 Nordeste 0 -- -- 30
2019-03-28 13:00:00 19.9 17 Este 28 Nordeste 0 -- -- 35
2019-03-28 12:00:00 18.7 12 Nordeste 27 Este 0 -- -- 44
2019-03-28 11:00:00 16.9 10 Nordeste 21 Este 0 -- -- 55
2019-03-28 10:00:00 13.8 4 Nordeste 11 Este 0 -- -- 59
2019-03-28 09:00:00 10.8 6 Este 15 Este 0 -- -- 65
2019-03-28 08:00:00 7.8 7 Este 13 Sudeste 0 -- -- 72
2019-03-28 07:00:00 5 5 Este 13 Este 0 -- -- 75
2019-03-28 06:00:00 5.2 10 Este 35 Este 0 -- -- 75
2019-03-28 05:00:00 4 3 Sudeste 9 Este 0 -- -- 73
2019-03-28 04:00:00 3.6 2 Nordeste 8 Sudeste 0 -- -- 69
2019-03-28 03:00:00 8.7 8 Sudeste 15 Sudeste 0 -- -- 55
2019-03-28 02:00:00 7.3 3 Este 9 Sur 0 -- -- 61
2019-03-28 01:00:00 7.6 4 Sudeste 10 Este 0 -- -- 54
2019-03-28 00:00:00 8 4 Este 12 Este 0 -- -- 53
2019-03-27 23:00:00 11.4 7 Este 10 Este 0 -- -- 48
2019-03-27 22:00:00 11.7 6 Este 9 Este 0 -- -- 48
2019-03-27 21:00:00 12.7 4 Este 8 Nordeste 0 -- -- 45
2019-03-27 20:00:00 16.7 4 Nordeste 22 Nordeste 0 -- -- 36
2019-03-27 19:00:00 20.5 11 Nordeste 27 Nordeste 0 -- -- 32
2019-03-27 18:00:00 21.2 13 Nordeste 31 Nordeste 0 -- -- 32
2019-03-27 17:00:00 22.2 12 Nordeste 28 Nordeste 0 -- -- 32
2019-03-27 16:00:00 21.6 16 Nordeste 35 Nordeste 0 -- -- 33
2019-03-27 15:00:00 21 15 Nordeste 53 Este 0 -- -- 35
2019-03-27 14:00:00 20.2 15 Nordeste 31 Nordeste 0 -- -- 37
2019-03-27 13:00:00 18.4 15 Nordeste 30 Este 0 -- -- 40
2019-03-27 12:00:00 17.9 15 Nordeste 31 Nordeste 0 -- -- 46
2019-03-27 11:00:00 16.1 12 Nordeste 30 Este 0 -- -- 52
2019-03-27 10:00:00 14 17 Nordeste 35 Este 0 -- -- 54
2019-03-27 09:00:00 12.5 13 Nordeste 26 Nordeste 0 -- -- 60
2019-03-27 08:00:00 10.3 13 Nordeste 24 Este 0 -- -- 60
2019-03-27 07:00:00 10.4 12 Nordeste 25 Nordeste 0 -- -- 60
2019-03-27 06:00:00 11.4 13 Nordeste 23 Nordeste 0 -- -- 57
2019-03-27 05:00:00 12 8 Este 21 Este 0 -- -- 56
2019-03-27 04:00:00 12.2 11 Este 24 Nordeste 0 -- -- 55
2019-03-27 03:00:00 14 13 Nordeste 29 Nordeste 0 -- -- 52
2019-03-27 02:00:00 15.1 15 Nordeste 32 Nordeste 0 -- -- 49
2019-03-27 01:00:00 16.3 18 Nordeste 30 Nordeste 0 -- -- 45
2019-03-27 00:00:00 17.1 19 Nordeste 36 Nordeste 0 -- -- 42